createdAt,value
2022-12-24T00:02:07.652Z,8.50
2022-12-24T00:04:35.591Z,9.02
2022-12-24T00:07:03.404Z,7.50
2022-12-24T00:09:31.439Z,8.05
2022-12-24T00:12:01.239Z,7.22
2022-12-24T00:14:29.172Z,7.70
2022-12-24T00:16:56.996Z,7.57
2022-12-24T00:19:25.402Z,7.22
2022-12-24T00:21:54.312Z,8.00
2022-12-24T00:24:22.211Z,6.78
2022-12-24T00:26:50.647Z,7.82
2022-12-24T00:29:20.718Z,6.57
2022-12-24T00:31:48.669Z,6.75
2022-12-24T00:34:17.051Z,7.03
2022-12-24T00:36:44.764Z,7.90
2022-12-24T00:39:12.721Z,7.75
2022-12-24T00:41:42.911Z,7.18
2022-12-24T00:44:12.156Z,6.10
2022-12-24T00:46:43.211Z,7.82
2022-12-24T00:49:12.746Z,6.47
2022-12-24T00:51:40.881Z,7.53
2022-12-24T00:54:09.555Z,6.55
2022-12-24T00:56:37.426Z,6.63
2022-12-24T00:59:05.552Z,7.10
2022-12-24T01:01:34.089Z,7.40
2022-12-24T01:04:17.548Z,6.45
2022-12-24T01:06:46.359Z,6.53
2022-12-24T01:09:14.301Z,6.45
2022-12-24T01:11:42.148Z,6.55
2022-12-24T01:14:10.526Z,6.28
2022-12-24T01:16:38.401Z,6.85
2022-12-24T01:19:07.751Z,7.88
2022-12-24T01:21:36.000Z,8.02
2022-12-24T01:24:03.929Z,6.90
2022-12-24T01:26:31.730Z,7.32
2022-12-24T01:29:00.421Z,6.53
2022-12-24T01:31:28.270Z,5.47
2022-12-24T01:33:56.258Z,4.72
2022-12-24T01:36:25.775Z,5.25
2022-12-24T01:38:53.539Z,5.78
2022-12-24T01:41:41.573Z,5.22
2022-12-24T01:44:33.404Z,6.28
2022-12-24T01:47:11.766Z,6.10
2022-12-24T01:49:42.978Z,6.30
2022-12-24T01:52:16.336Z,5.88
2022-12-24T01:54:51.604Z,6.70
2022-12-24T01:57:24.293Z,6.40
2022-12-24T01:59:56.215Z,7.75
2022-12-24T02:02:25.069Z,7.15
2022-12-24T02:04:59.091Z,6.75
2022-12-24T02:07:28.860Z,6.63
2022-12-24T02:09:59.584Z,6.32
2022-12-24T02:12:28.393Z,5.97
2022-12-24T02:14:56.597Z,6.80
2022-12-24T02:17:32.995Z,7.15
2022-12-24T02:20:35.029Z,6.35
2022-12-24T02:23:32.530Z,8.30
2022-12-24T02:26:15.764Z,6.28
2022-12-24T02:29:07.639Z,6.68
2022-12-24T02:31:42.977Z,5.43
2022-12-24T02:36:48.458Z,4.90
2022-12-24T02:39:23.635Z,5.63
2022-12-24T02:42:07.358Z,6.20
2022-12-24T02:44:40.764Z,5.57
2022-12-24T02:47:12.157Z,5.35
2022-12-24T02:49:40.201Z,4.68
2022-12-24T02:52:07.957Z,4.53
2022-12-24T02:54:36.126Z,5.40
2022-12-24T02:57:18.855Z,4.90
2022-12-24T03:00:00.565Z,5.43
2022-12-24T03:02:41.505Z,4.85
2022-12-24T03:05:22.401Z,6.13
2022-12-24T03:08:04.776Z,6.22
2022-12-24T03:10:39.776Z,5.68
2022-12-24T03:13:11.667Z,5.72
2022-12-24T03:15:41.138Z,6.18
2022-12-24T03:18:13.252Z,5.85
2022-12-24T03:20:43.787Z,6.07
2022-12-24T03:23:12.439Z,6.35
2022-12-24T03:25:44.027Z,6.55
2022-12-24T03:28:15.238Z,6.22
2022-12-24T03:30:44.558Z,6.47
2022-12-24T03:33:14.836Z,6.03
2022-12-24T03:35:42.852Z,6.70
2022-12-24T03:38:11.343Z,6.00
2022-12-24T03:40:39.215Z,5.78
2022-12-24T03:43:07.371Z,6.03
2022-12-24T03:45:36.052Z,5.75
2022-12-24T03:48:04.290Z,7.20
2022-12-24T03:50:34.145Z,7.55
2022-12-24T03:53:02.019Z,6.47
2022-12-24T03:55:29.919Z,7.03
2022-12-24T03:57:57.800Z,6.55
2022-12-24T04:00:25.781Z,5.45
2022-12-24T04:02:54.840Z,6.88
2022-12-24T04:05:23.158Z,7.57
2022-12-24T04:07:52.809Z,7.70
2022-12-24T04:10:20.683Z,7.15
2022-12-24T04:12:48.565Z,6.63
2022-12-24T04:15:16.501Z,8.30
2022-12-24T04:17:44.341Z,6.90
2022-12-24T04:20:13.598Z,7.60
2022-12-24T04:22:42.306Z,7.30
2022-12-24T04:25:12.652Z,6.38
2022-12-24T04:27:40.473Z,7.10
2022-12-24T04:30:09.754Z,7.20
2022-12-24T04:32:38.186Z,7.28
2022-12-24T04:35:06.739Z,7.53
2022-12-24T04:37:35.418Z,7.63
2022-12-24T04:40:03.384Z,6.85
2022-12-24T04:42:32.645Z,7.22
2022-12-24T04:45:00.655Z,6.78
2022-12-24T04:47:28.597Z,6.90
2022-12-24T04:49:56.523Z,7.30
2022-12-24T04:52:24.745Z,6.78
2022-12-24T04:54:52.570Z,7.38
2022-12-24T04:57:20.717Z,7.20
2022-12-24T04:59:50.322Z,6.18
2022-12-24T05:02:18.488Z,8.30
2022-12-24T05:04:46.503Z,9.32
2022-12-24T05:07:14.751Z,7.43
2022-12-24T05:09:42.504Z,7.32
2022-12-24T05:12:10.427Z,7.18
2022-12-24T05:14:38.875Z,6.55
2022-12-24T05:17:08.186Z,9.00
2022-12-24T05:19:36.085Z,8.45
2022-12-24T05:22:21.593Z,7.53
2022-12-24T05:25:07.028Z,6.82
2022-12-24T05:27:34.936Z,6.45
2022-12-24T05:30:02.837Z,7.93
2022-12-24T05:32:32.741Z,8.25
2022-12-24T05:35:00.550Z,7.30
2022-12-24T05:37:28.418Z,8.55
2022-12-24T05:39:56.305Z,6.63
2022-12-24T05:42:24.208Z,6.03
2022-12-24T05:44:52.344Z,6.95
2022-12-24T05:47:20.296Z,6.90
2022-12-24T05:49:49.578Z,8.18
2022-12-24T05:52:17.714Z,7.93
2022-12-24T05:54:45.509Z,6.90
2022-12-24T05:57:13.993Z,7.30
2022-12-24T05:59:41.820Z,7.70
2022-12-24T06:02:10.856Z,6.75
2022-12-24T06:04:39.080Z,7.07
2022-12-24T06:07:08.427Z,7.88
2022-12-24T06:09:36.803Z,6.60
2022-12-24T06:12:04.908Z,8.23
2022-12-24T06:14:32.918Z,7.40
2022-12-24T06:17:02.281Z,8.38
2022-12-24T06:19:30.080Z,8.15
2022-12-24T06:21:57.918Z,7.40
2022-12-24T06:24:27.422Z,8.55
2022-12-24T06:26:55.273Z,7.93
2022-12-24T06:29:23.101Z,7.82
2022-12-24T06:31:51.266Z,8.38
2022-12-24T06:34:19.354Z,6.32
2022-12-24T06:36:47.292Z,7.78
2022-12-24T06:39:15.602Z,7.72
2022-12-24T06:41:45.081Z,6.68
2022-12-24T06:44:12.954Z,6.93
2022-12-24T06:46:40.982Z,8.10
2022-12-24T06:49:09.417Z,6.75
2022-12-24T06:51:37.717Z,6.82
2022-12-24T06:54:05.693Z,8.25
2022-12-24T06:56:33.455Z,6.82
2022-12-24T06:59:05.551Z,8.38
2022-12-24T07:01:33.857Z,8.65
2022-12-24T07:04:01.904Z,8.07
2022-12-24T07:06:31.142Z,8.27
2022-12-24T07:08:59.212Z,8.27
2022-12-24T07:11:28.040Z,7.75
2022-12-24T07:13:55.974Z,6.68
2022-12-24T07:16:25.753Z,8.27
2022-12-24T07:18:53.728Z,7.55
2022-12-24T07:21:21.471Z,6.78
2022-12-24T07:23:49.755Z,7.43
2022-12-24T07:26:17.621Z,7.13
2022-12-24T07:28:45.386Z,6.05
2022-12-24T07:31:13.639Z,8.95
2022-12-24T07:33:43.050Z,7.30
2022-12-24T07:36:16.339Z,7.85
2022-12-24T07:38:44.139Z,7.15
2022-12-24T07:41:12.227Z,8.20
2022-12-24T07:43:40.701Z,6.85
2022-12-24T07:46:08.542Z,7.30
2022-12-24T07:48:36.647Z,6.60
2022-12-24T07:51:06.987Z,6.50
2022-12-24T07:53:35.182Z,7.30
2022-12-24T07:56:07.555Z,7.30
2022-12-24T08:01:06.686Z,6.82
2022-12-24T08:03:34.766Z,7.28
2022-12-24T08:06:03.199Z,9.10
2022-12-24T08:08:32.486Z,8.15
2022-12-24T08:11:04.224Z,8.68
2022-12-24T08:13:32.753Z,7.97
2022-12-24T08:16:00.900Z,10.48
2022-12-24T08:18:28.952Z,10.68
2022-12-24T08:20:56.894Z,10.75
2022-12-24T08:23:24.737Z,20.92
2022-12-24T08:25:54.859Z,12.25
2022-12-24T08:28:22.638Z,12.13
2022-12-24T08:30:51.671Z,10.57
2022-12-24T08:33:20.915Z,8.80
2022-12-24T08:35:50.243Z,7.65
2022-12-24T08:38:18.591Z,10.05
2022-12-24T08:40:49.415Z,9.30
2022-12-24T08:43:19.381Z,9.00
2022-12-24T08:45:49.859Z,14.32
2022-12-24T08:48:17.909Z,13.57
2022-12-24T08:50:46.460Z,10.80
2022-12-24T08:53:14.539Z,10.25
2022-12-24T08:55:42.541Z,12.10
2022-12-24T08:58:10.538Z,9.35
2022-12-24T09:00:40.415Z,9.75
2022-12-24T09:03:08.580Z,11.55
2022-12-24T09:05:41.403Z,11.63
2022-12-24T09:08:09.302Z,9.50
2022-12-24T09:10:37.178Z,9.50
2022-12-24T09:13:05.323Z,10.73
2022-12-24T09:15:33.345Z,8.13
2022-12-24T09:18:02.954Z,7.57
2022-12-24T09:20:31.509Z,9.15
2022-12-24T09:22:59.351Z,9.88
2022-12-24T09:25:28.261Z,9.43
2022-12-24T09:27:57.886Z,11.00
2022-12-24T09:30:25.835Z,11.18
2022-12-24T09:32:53.735Z,11.57
2022-12-24T09:35:23.679Z,11.82
2022-12-24T09:38:02.837Z,11.57
2022-12-24T09:40:37.545Z,9.48
2022-12-24T09:43:12.924Z,14.93
2022-12-24T09:48:17.290Z,10.00
2022-12-24T09:50:53.648Z,8.25
2022-12-24T09:53:25.130Z,9.52
2022-12-24T09:55:57.620Z,16.50
2022-12-24T09:58:29.646Z,9.65
2022-12-24T10:00:58.595Z,9.40
2022-12-24T10:03:27.185Z,9.93
2022-12-24T10:06:08.100Z,12.00
2022-12-24T10:08:45.093Z,14.90
2022-12-24T10:11:20.431Z,9.05
2022-12-24T10:16:30.816Z,7.93
2022-12-24T10:19:12.000Z,7.90
2022-12-24T10:21:52.728Z,11.10
2022-12-24T10:24:26.361Z,11.88
2022-12-24T10:27:00.511Z,7.22
2022-12-24T10:29:31.247Z,9.73
2022-12-24T10:32:07.027Z,7.88
2022-12-24T10:34:39.777Z,9.27
2022-12-24T10:37:16.251Z,8.82
2022-12-24T10:39:44.539Z,8.23
2022-12-24T10:42:14.583Z,10.85
2022-12-24T10:44:43.106Z,8.57
2022-12-24T10:47:12.354Z,9.10
2022-12-24T10:49:47.661Z,8.68
2022-12-24T10:52:22.743Z,8.30
2022-12-24T10:55:09.802Z,10.65
2022-12-24T10:57:39.147Z,8.57
2022-12-24T11:00:10.946Z,7.70
2022-12-24T11:02:40.167Z,7.57
2022-12-24T11:05:28.784Z,7.25
2022-12-24T11:08:02.796Z,8.45
2022-12-24T11:10:31.090Z,7.97
2022-12-24T11:13:35.105Z,9.57
2022-12-24T11:15:47.651Z,9.45
2022-12-24T11:18:16.841Z,7.75
2022-12-24T11:20:52.869Z,7.47
2022-12-24T11:23:23.872Z,8.70
2022-12-24T11:25:53.809Z,9.48
2022-12-24T11:28:24.895Z,8.00
2022-12-24T11:30:59.555Z,7.68
2022-12-24T11:33:28.110Z,8.25
2022-12-24T11:36:02.272Z,7.47
2022-12-24T11:38:33.991Z,7.30
2022-12-24T11:41:06.130Z,10.40
2022-12-24T11:43:47.221Z,8.23
2022-12-24T11:46:38.924Z,14.95
2022-12-24T11:49:15.331Z,11.30
2022-12-24T11:52:02.713Z,15.90
2022-12-24T11:54:38.143Z,10.43
2022-12-24T11:59:39.689Z,11.82
2022-12-24T12:02:20.693Z,24.35
2022-12-24T12:04:53.046Z,8.88
2022-12-24T12:07:26.801Z,12.27
2022-12-24T12:10:01.734Z,11.07
2022-12-24T12:12:32.898Z,10.93
2022-12-24T12:15:05.123Z,8.18
2022-12-24T12:17:36.553Z,8.65
2022-12-24T12:20:12.011Z,8.98
2022-12-24T12:22:47.059Z,9.25
2022-12-24T12:25:23.864Z,7.65
2022-12-24T12:27:55.118Z,9.32
2022-12-24T12:30:24.429Z,8.45
2022-12-24T12:32:58.336Z,9.52
2022-12-24T12:35:29.646Z,10.85
2022-12-24T12:38:02.331Z,8.27
2022-12-24T12:40:56.484Z,12.00
2022-12-24T12:43:40.483Z,7.00
2022-12-24T12:46:17.944Z,9.45
2022-12-24T12:49:02.824Z,16.52
2022-12-24T12:51:40.007Z,7.85
2022-12-24T12:54:25.246Z,11.00
2022-12-24T12:56:57.520Z,12.30
2022-12-24T12:59:34.165Z,7.72
2022-12-24T13:02:15.441Z,7.68
2022-12-24T13:05:02.661Z,9.65
2022-12-24T13:07:52.705Z,9.35
2022-12-24T13:10:54.550Z,8.82
2022-12-24T13:13:46.603Z,8.15
2022-12-24T13:16:54.258Z,10.48
2022-12-24T13:19:38.263Z,7.28
2022-12-24T13:22:07.107Z,7.32
2022-12-24T13:24:36.084Z,7.82
2022-12-24T13:27:07.407Z,8.02
2022-12-24T13:29:52.042Z,11.90
2022-12-24T13:32:50.958Z,8.05
2022-12-24T13:35:38.304Z,8.73
2022-12-24T13:38:43.803Z,7.40
2022-12-24T13:41:50.152Z,6.25
2022-12-24T13:44:24.371Z,7.85
2022-12-24T13:47:00.006Z,7.80
2022-12-24T13:49:32.596Z,6.38
2022-12-24T13:52:19.277Z,7.75
2022-12-24T13:55:01.973Z,8.75
2022-12-24T13:57:38.245Z,6.95
2022-12-24T14:00:10.584Z,7.47
2022-12-24T14:02:47.673Z,7.22
2022-12-24T14:05:22.068Z,8.98
2022-12-24T14:07:51.305Z,7.07
2022-12-24T14:10:26.545Z,7.32
2022-12-24T14:12:54.896Z,7.07
2022-12-24T14:16:02.225Z,6.18
2022-12-24T14:18:35.283Z,6.75
2022-12-24T14:21:04.281Z,8.48
2022-12-24T14:23:38.653Z,8.02
2022-12-24T14:26:15.684Z,8.73
2022-12-24T14:28:48.198Z,9.85
2022-12-24T14:31:19.193Z,9.20
2022-12-24T14:33:48.582Z,8.02
2022-12-24T14:36:23.436Z,8.43
2022-12-24T14:38:51.685Z,7.35
2022-12-24T14:41:31.561Z,8.32
2022-12-24T14:44:09.462Z,7.65
2022-12-24T14:46:45.405Z,7.03
2022-12-24T14:49:25.267Z,7.07
2022-12-24T14:52:04.755Z,7.57
2022-12-24T14:54:39.933Z,8.82
2022-12-24T14:57:17.685Z,8.65
2022-12-24T14:59:48.380Z,7.68
2022-12-24T15:02:26.478Z,8.52
2022-12-24T15:05:11.738Z,7.95
2022-12-24T15:07:47.474Z,8.10
2022-12-24T15:10:26.650Z,7.95
2022-12-24T15:12:57.697Z,16.17
2022-12-24T15:15:25.673Z,13.88
2022-12-24T15:17:53.971Z,8.32
2022-12-24T15:20:26.364Z,8.32
2022-12-24T15:22:57.456Z,8.45
2022-12-24T15:25:28.591Z,7.65
2022-12-24T15:27:57.004Z,7.90
2022-12-24T15:30:26.483Z,11.30
2022-12-24T15:32:56.474Z,8.07
2022-12-24T15:35:45.544Z,7.93
2022-12-24T15:38:28.592Z,8.95
2022-12-24T15:40:58.965Z,8.30
2022-12-24T15:43:28.320Z,8.63
2022-12-24T15:45:56.532Z,7.72
2022-12-24T15:48:27.097Z,6.38
2022-12-24T15:50:59.502Z,6.82
2022-12-24T15:53:31.353Z,6.93
2022-12-24T15:56:06.381Z,7.15
2022-12-24T15:58:36.291Z,7.68
2022-12-24T16:09:46.635Z,8.73
2022-12-24T16:12:18.164Z,9.98
2022-12-24T16:14:53.425Z,8.15
2022-12-24T16:17:24.438Z,8.02
2022-12-24T16:19:55.476Z,9.93
2022-12-24T16:22:35.379Z,10.00
2022-12-24T16:25:17.722Z,10.73
2022-12-24T16:27:47.004Z,8.52
2022-12-24T16:30:15.089Z,8.73
2022-12-24T16:32:44.111Z,8.43
2022-12-24T16:35:24.367Z,10.27
2022-12-24T16:37:54.725Z,7.38
2022-12-24T16:40:32.504Z,9.32
2022-12-24T16:43:18.902Z,8.32
2022-12-24T16:45:48.481Z,8.70
2022-12-24T16:48:28.391Z,9.55
2022-12-24T16:50:56.720Z,9.07
2022-12-24T16:53:26.107Z,10.07
2022-12-24T16:55:53.956Z,10.15
2022-12-24T16:58:22.776Z,8.27
2022-12-24T17:00:51.166Z,9.15
2022-12-24T17:03:19.368Z,10.05
2022-12-24T17:05:47.529Z,9.55
2022-12-24T17:08:15.592Z,8.00
2022-12-24T17:10:52.312Z,7.50
2022-12-24T17:13:22.494Z,6.30
2022-12-24T17:15:50.626Z,7.60
2022-12-24T17:18:18.881Z,7.50
2022-12-24T17:20:47.395Z,7.80
2022-12-24T17:23:15.249Z,6.95
2022-12-24T17:25:44.559Z,7.50
2022-12-24T17:28:13.314Z,8.25
2022-12-24T17:30:41.804Z,7.45
2022-12-24T17:33:14.568Z,7.60
2022-12-24T17:35:44.239Z,7.07
2022-12-24T17:38:12.317Z,7.97
2022-12-24T17:40:42.672Z,8.88
2022-12-24T17:43:12.888Z,9.15
2022-12-24T17:45:42.331Z,7.57
2022-12-24T17:48:10.306Z,9.55
2022-12-24T17:50:40.782Z,10.00
2022-12-24T17:53:11.756Z,33.50
2022-12-24T17:55:43.427Z,27.90
2022-12-24T17:58:15.138Z,23.25
2022-12-24T18:00:43.739Z,24.45
2022-12-24T18:03:14.703Z,31.67
2022-12-24T18:05:42.803Z,27.45
2022-12-24T18:08:11.311Z,19.42
2022-12-24T18:10:39.189Z,12.55
2022-12-24T18:13:07.946Z,10.23
2022-12-24T18:15:40.248Z,8.82
2022-12-24T18:18:09.313Z,10.07
2022-12-24T18:20:44.389Z,11.18
2022-12-24T18:23:14.948Z,10.00
2022-12-24T18:25:42.789Z,10.82
2022-12-24T18:28:11.185Z,10.10
2022-12-24T18:30:42.522Z,9.65
2022-12-24T18:33:10.478Z,10.18
2022-12-24T18:35:38.267Z,9.63
2022-12-24T18:38:06.504Z,10.15
2022-12-24T18:40:37.871Z,10.20
2022-12-24T18:43:05.723Z,10.80
2022-12-24T18:45:34.202Z,13.23
2022-12-24T18:48:03.562Z,12.35
2022-12-24T18:50:31.327Z,10.82
2022-12-24T18:52:59.280Z,10.85
2022-12-24T18:55:27.526Z,11.63
2022-12-24T18:57:55.458Z,11.80
2022-12-24T19:00:24.501Z,11.32
2022-12-24T19:02:52.464Z,12.45
2022-12-24T19:05:21.999Z,14.40
2022-12-24T19:07:50.502Z,12.02
2022-12-24T19:10:18.439Z,11.90
2022-12-24T19:12:46.402Z,12.07
2022-12-24T19:15:15.524Z,11.77
2022-12-24T19:17:44.060Z,10.23
2022-12-24T19:20:12.708Z,10.02
2022-12-24T19:22:42.720Z,8.13
2022-12-24T19:25:10.839Z,8.00
2022-12-24T19:27:38.744Z,8.93
2022-12-24T19:30:08.403Z,7.82
2022-12-24T19:32:36.244Z,8.82
2022-12-24T19:35:04.062Z,7.85
2022-12-24T19:37:32.473Z,7.60
2022-12-24T19:40:01.767Z,8.15
2022-12-24T19:42:30.732Z,6.38
2022-12-24T19:44:58.990Z,7.28
2022-12-24T19:47:26.874Z,7.43
2022-12-24T19:49:54.891Z,6.55
2022-12-24T19:52:30.008Z,7.40
2022-12-24T19:54:57.931Z,12.90
2022-12-24T19:57:28.047Z,13.13
2022-12-24T19:59:56.060Z,12.98
2022-12-24T20:02:24.386Z,18.92
2022-12-24T20:04:53.151Z,13.65
2022-12-24T20:07:20.907Z,9.77
2022-12-24T20:09:48.743Z,14.32
2022-12-24T20:12:16.979Z,12.55
2022-12-24T20:14:46.437Z,10.80
2022-12-24T20:17:15.106Z,10.00
2022-12-24T20:19:43.440Z,11.20
2022-12-24T20:22:12.325Z,9.88
2022-12-24T20:24:40.437Z,8.77
2022-12-24T20:27:08.833Z,11.13
2022-12-24T20:29:36.827Z,12.32
2022-12-24T20:32:07.012Z,13.50
2022-12-24T20:34:35.542Z,10.68
2022-12-24T20:37:04.274Z,8.93
2022-12-24T20:39:32.149Z,8.55
2022-12-24T20:42:01.477Z,8.77
2022-12-24T20:44:29.385Z,6.72
2022-12-24T20:46:57.276Z,6.82
2022-12-24T20:49:26.765Z,7.55
2022-12-24T20:51:54.699Z,7.32
2022-12-24T20:54:22.448Z,7.43
2022-12-24T20:56:57.886Z,6.25
2022-12-24T20:59:26.885Z,9.00
2022-12-24T21:01:55.471Z,11.07
2022-12-24T21:04:23.513Z,10.18
2022-12-24T21:06:52.846Z,8.50
2022-12-24T21:09:20.988Z,8.88
2022-12-24T21:12:11.670Z,7.50
2022-12-24T21:14:40.145Z,8.48
2022-12-24T21:17:13.601Z,7.60
2022-12-24T21:22:13.196Z,7.82
2022-12-24T21:24:41.244Z,11.00
2022-12-24T21:27:09.732Z,7.75
2022-12-24T21:29:37.673Z,10.05
2022-12-24T21:32:05.723Z,10.65
2022-12-24T21:34:33.984Z,8.68
2022-12-24T21:37:01.914Z,8.00
2022-12-24T21:39:31.381Z,7.55
2022-12-24T21:41:59.891Z,8.68
2022-12-24T21:44:27.595Z,8.95
2022-12-24T21:46:55.549Z,6.95
2022-12-24T21:49:41.117Z,7.40
2022-12-24T21:52:08.891Z,6.35
2022-12-24T21:54:37.119Z,7.80
2022-12-24T21:57:26.176Z,7.80
2022-12-24T21:59:56.980Z,6.88
2022-12-24T22:02:28.480Z,6.47
2022-12-24T22:04:56.520Z,7.30
2022-12-24T22:07:44.735Z,7.15
2022-12-24T22:10:33.054Z,7.43
2022-12-24T22:13:03.783Z,8.25
2022-12-24T22:15:31.863Z,9.70
2022-12-24T22:17:59.765Z,7.72
2022-12-24T22:20:28.306Z,7.85
2022-12-24T22:22:56.145Z,7.22
2022-12-24T22:25:25.357Z,8.30
2022-12-24T22:27:53.750Z,8.43
2022-12-24T22:30:21.828Z,7.72
2022-12-24T22:32:49.675Z,7.38
2022-12-24T22:35:18.911Z,7.78
2022-12-24T22:37:47.363Z,7.68
2022-12-24T22:40:15.523Z,6.80
2022-12-24T22:42:45.495Z,7.38
2022-12-24T22:45:20.005Z,7.13
2022-12-24T22:47:50.600Z,7.80
2022-12-24T22:50:18.478Z,7.55
2022-12-24T22:52:46.609Z,6.72
2022-12-24T22:55:15.180Z,6.88
2022-12-24T22:57:44.562Z,5.85
2022-12-24T23:00:17.714Z,5.75
2022-12-24T23:02:45.599Z,6.13
2022-12-24T23:05:16.329Z,6.43
2022-12-24T23:07:44.268Z,5.53
2022-12-24T23:10:12.210Z,5.70
2022-12-24T23:12:57.747Z,5.30
2022-12-24T23:15:26.967Z,5.88
2022-12-24T23:17:56.170Z,5.90
2022-12-24T23:20:24.395Z,5.40
2022-12-24T23:22:52.139Z,5.72
2022-12-24T23:25:20.472Z,5.13
2022-12-24T23:27:48.784Z,4.88
2022-12-24T23:30:17.220Z,4.80
2022-12-24T23:32:48.176Z,4.70
2022-12-24T23:35:16.637Z,5.07
2022-12-24T23:37:44.663Z,4.32
2022-12-24T23:40:12.945Z,3.63
2022-12-24T23:42:41.611Z,4.03
2022-12-24T23:45:10.340Z,3.53
2022-12-24T23:47:38.203Z,4.32
2022-12-24T23:50:10.748Z,4.28
2022-12-24T23:52:38.512Z,5.20
2022-12-24T23:55:07.317Z,4.75
2022-12-24T23:57:35.337Z,3.28
